Riversville, Missouri
Current Conditions -  °F | °C
As of 7:54 PM on Thursday 18 Dec 2014 (Local Time) from KCOU Reporting Station
Haze Haze  
Wind Chill: 26°   Ceiling: 600
Heat Index: 32°   Visibility: 6mi
Dew Point: 30°   Wind: 7mph
Humidity: 92%   Direction: 80°E
Pressure: 30.25"   Gusts: NA
Location:  39.1882°N, 91.8924°W
Report Text: KCOU 190154Z 08006KT 6SM BR OVC006 00/M01 A3025 RMK AO2 SLP251 T00001011
Loading
Personal Weather Stations






























Interactive Weather Map New forecast layout! Learn more

10-Day Weather Forecast

Advertisements
Track Severe Weather on mobile